Time;durP1;ratioP1;P1;durP2;ratioP2;P2;SDS_P1;SDS_P2;PMS_P1;PMS_P2;Temp;Humidity;BMP_temperature;BMP_pressure;BME280_temperature;BME280_humidity;BME280_pressure;Samples;Min_cycle;Max_cycle;Signal;HPM_P1;HPM_P2
2022/11/16 00:02:15;;;;;;;0.40;0.40;;;17.30;73.40;;;;;;5003774;28;20050;-23
2022/11/16 00:04:41;;;;;;;0.55;0.55;;;17.40;73.50;;;;;;5009523;28;20061;-21
2022/11/16 00:07:06;;;;;;;1.00;0.40;;;17.30;73.50;;;;;;5010539;28;20406;-21
2022/11/16 00:09:32;;;;;;;0.55;0.55;;;17.40;73.40;;;;;;5011832;28;20410;-22
2022/11/16 00:11:59;;;;;;;0.50;0.50;;;17.40;73.10;;;;;;5024771;28;20127;-21
2022/11/16 00:14:27;;;;;;;0.47;0.47;;;17.40;73.30;;;;;;5000065;28;20060;-21
2022/11/16 00:16:52;;;;;;;0.50;0.40;;;17.40;73.40;;;;;;4992562;28;20078;-22
2022/11/16 00:19:18;;;;;;;1.02;0.50;;;17.30;74.00;;;;;;5005368;28;20136;-22
2022/11/16 00:21:43;;;;;;;0.35;0.35;;;17.30;73.60;;;;;;5010882;28;20045;-21
2022/11/16 00:24:16;;;;;;;1.05;0.50;;;17.40;73.60;;;;;;5007731;28;20065;-21
2022/11/16 00:26:42;;;;;;;0.50;0.50;;;17.30;73.40;;;;;;5009636;28;20045;-23
2022/11/16 00:29:18;;;;;;;0.47;0.47;;;17.30;73.30;;;;;;5014802;28;20180;-21
2022/11/16 00:31:44;;;;;;;0.63;0.63;;;17.30;73.40;;;;;;5008393;28;20410;-21
2022/11/16 00:34:10;;;;;;;1.27;0.50;;;17.30;73.40;;;;;;5009872;28;20045;-21
2022/11/16 00:36:35;;;;;;;0.80;0.60;;;17.30;73.20;;;;;;5008544;28;20076;-21
2022/11/16 00:39:01;;;;;;;0.95;0.50;;;17.30;73.30;;;;;;5012189;28;20057;-21
2022/11/16 00:41:26;;;;;;;0.45;0.40;;;17.30;73.50;;;;;;5009613;28;20596;-21
2022/11/16 00:43:52;;;;;;;0.63;0.47;;;17.30;73.30;;;;;;5005471;28;20045;-42
2022/11/16 00:46:18;;;;;;;1.02;0.68;;;17.30;73.50;;;;;;5007981;28;20050;-41
2022/11/16 00:48:43;;;;;;;0.55;0.43;;;17.30;74.00;;;;;;4994296;28;20086;-41
2022/11/16 00:51:09;;;;;;;0.50;0.50;;;17.30;73.30;;;;;;4992555;28;20037;-42
2022/11/16 00:53:34;;;;;;;0.55;0.55;;;17.30;73.30;;;;;;4991859;28;20380;-46
2022/11/16 00:56:00;;;;;;;0.25;0.25;;;17.30;73.30;;;;;;4995650;28;20034;-42
2022/11/16 00:58:26;;;;;;;0.75;0.47;;;17.30;73.40;;;;;;4991765;28;20040;-40
2022/11/16 01:00:51;;;;;;;1.67;0.40;;;17.30;73.40;;;;;;5012731;28;20038;-41
2022/11/16 01:03:17;;;;;;;0.52;0.43;;;17.30;73.40;;;;;;5008223;28;20121;-41
2022/11/16 01:05:42;;;;;;;0.77;0.77;;;17.30;73.60;;;;;;5008608;28;20383;-42
2022/11/16 01:08:08;;;;;;;0.52;0.40;;;17.20;73.70;;;;;;5009171;28;20037;-44
2022/11/16 01:10:34;;;;;;;0.60;0.50;;;17.20;73.70;;;;;;5016153;28;20509;-41
2022/11/16 01:12:59;;;;;;;1.05;0.55;;;17.20;73.70;;;;;;5012567;28;20387;-41
2022/11/16 01:15:25;;;;;;;0.43;0.35;;;17.20;73.60;;;;;;5009755;28;20543;-42
2022/11/16 01:17:52;;;;;;;0.45;0.25;;;17.20;73.60;;;;;;5008090;28;20372;-42
2022/11/16 01:20:19;;;;;;;0.60;0.40;;;17.20;73.60;;;;;;5013940;28;20050;-41
2022/11/16 01:22:44;;;;;;;0.63;0.50;;;17.20;73.60;;;;;;5006721;28;20064;-42
2022/11/16 01:25:11;;;;;;;0.50;0.43;;;17.20;73.60;;;;;;5012673;28;20065;-41
2022/11/16 01:27:36;;;;;;;0.40;0.40;;;17.20;73.60;;;;;;5000230;28;20042;-42
2022/11/16 01:30:03;;;;;;;0.65;0.60;;;17.20;73.50;;;;;;5001856;28;20052;-42
2022/11/16 01:32:28;;;;;;;0.80;0.60;;;17.20;73.50;;;;;;4996185;28;20100;-40
2022/11/16 01:34:54;;;;;;;0.45;0.32;;;17.20;73.50;;;;;;4994659;28;20061;-41
2022/11/16 01:37:19;;;;;;;1.00;0.60;;;17.20;73.40;;;;;;4994915;28;20034;-41
2022/11/16 01:39:47;;;;;;;0.52;0.45;;;17.20;73.50;;;;;;4993176;28;20061;-41
2022/11/16 01:42:17;;;;;;;0.43;0.43;;;17.20;73.50;;;;;;5000393;28;20041;-42
2022/11/16 01:44:43;;;;;;;0.65;0.50;;;17.20;73.60;;;;;;5011968;28;20041;-41
2022/11/16 01:47:10;;;;;;;0.35;0.30;;;17.20;73.40;;;;;;5014329;28;20057;-41
2022/11/16 01:49:38;;;;;;;0.88;0.40;;;17.20;73.30;;;;;;5008800;28;20042;-41
2022/11/16 01:52:09;;;;;;;0.70;0.57;;;17.20;73.40;;;;;;5007293;28;20366;-42
2022/11/16 01:54:36;;;;;;;0.40;0.40;;;17.20;73.50;;;;;;4995033;28;20038;-41
2022/11/16 01:57:03;;;;;;;0.50;0.40;;;17.20;73.50;;;;;;4994644;28;20062;-43
2022/11/16 01:59:29;;;;;;;0.47;0.40;;;17.20;74.30;;;;;;4994083;28;20068;-39
2022/11/16 02:01:55;;;;;;;0.30;0.30;;;17.20;73.50;;;;;;5004928;28;20046;-42
2022/11/16 02:04:21;;;;;;;0.30;0.30;;;17.20;73.50;;;;;;5011398;28;20096;-42
2022/11/16 02:07:01;;;;;;;0.63;0.43;;;17.20;73.60;;;;;;5010156;28;20054;-42
2022/11/16 02:09:57;;;;;;;0.50;0.22;;;17.20;73.60;;;;;;5020218;28;20061;-41
2022/11/16 02:13:02;;;;;;;0.30;0.30;;;17.20;73.50;;;;;;4995698;28;20042;-42
2022/11/16 02:15:46;;;;;;;1.05;0.30;;;17.20;73.60;;;;;;4993287;28;21277;-42
2022/11/16 02:18:24;;;;;;;0.43;0.43;;;17.10;73.50;;;;;;5008969;28;20030;-41
2022/11/16 02:21:20;;;;;;;0.47;0.30;;;17.20;73.40;;;;;;4988599;28;21698;-45
2022/11/16 02:24:06;;;;;;;0.40;0.38;;;17.20;73.10;;;;;;4995677;28;20563;-44
2022/11/16 02:26:55;;;;;;;0.75;0.50;;;17.30;73.00;;;;;;5010260;28;20126;-42
2022/11/16 02:29:41;;;;;;;0.30;0.30;;;17.30;72.80;;;;;;5006979;28;20038;-42
2022/11/16 02:32:29;;;;;;;0.50;0.40;;;17.40;72.60;;;;;;4978642;28;20527;-41
2022/11/16 02:35:08;;;;;;;0.80;0.50;;;17.30;72.50;;;;;;4978367;28;20042;-42
2022/11/16 02:37:36;;;;;;;0.30;0.30;;;17.40;72.40;;;;;;5011349;28;20050;-41
2022/11/16 02:40:03;;;;;;;0.20;0.20;;;17.30;72.50;;;;;;4961949;28;20051;-42
2022/11/16 02:42:40;;;;;;;0.88;0.50;;;17.30;72.50;;;;;;4977363;28;20045;-41
2022/11/16 02:45:06;;;;;;;1.20;0.35;;;17.30;72.60;;;;;;5008633;28;20527;-42
2022/11/16 02:47:32;;;;;;;0.65;0.30;;;17.30;72.70;;;;;;5007616;28;20533;-43
2022/11/16 02:50:09;;;;;;;0.47;0.47;;;17.30;72.50;;;;;;4976131;28;20169;-44
2022/11/16 02:52:35;;;;;;;1.13;0.40;;;17.30;72.50;;;;;;5003348;28;20034;-42
2022/11/16 02:55:01;;;;;;;0.65;0.45;;;17.30;72.60;;;;;;5008206;28;20045;-42
2022/11/16 02:57:26;;;;;;;0.20;0.20;;;17.30;72.50;;;;;;5011586;28;20033;-44
2022/11/16 02:59:53;;;;;;;0.40;0.30;;;17.30;72.50;;;;;;5010170;28;20507;-41
2022/11/16 03:02:27;;;;;;;0.50;0.30;;;17.40;72.40;;;;;;5001685;28;20038;-44
2022/11/16 03:05:01;;;;;;;0.55;0.32;;;17.40;72.40;;;;;;4992332;28;20046;-46
2022/11/16 03:07:35;;;;;;;;;;;17.40;72.30;;;;;;4977072;28;20037;-42
2022/11/16 03:10:00;;;;;;;0.43;0.43;;;17.30;72.40;;;;;;4996976;28;19916;-41
2022/11/16 03:12:29;;;;;;;0.35;0.35;;;17.30;72.50;;;;;;5007224;28;20046;-42
2022/11/16 03:14:57;;;;;;;0.40;0.40;;;17.30;72.60;;;;;;5008348;28;20045;-42
2022/11/16 03:17:29;;;;;;;0.35;0.15;;;17.30;72.40;;;;;;5010893;28;20093;-41
2022/11/16 03:20:12;;;;;;;0.40;0.30;;;17.30;72.50;;;;;;4992525;28;20519;-42
2022/11/16 03:22:41;;;;;;;0.63;0.45;;;17.30;72.40;;;;;;5028272;28;20146;-42
2022/11/16 03:25:06;;;;;;;0.30;0.30;;;17.30;73.00;;;;;;5002063;28;20049;-41
2022/11/16 03:28:01;;;;;;;0.28;0.28;;;17.30;72.10;;;;;;4993281;28;20469;-42
2022/11/16 03:30:28;;;;;;;0.63;0.20;;;17.30;72.40;;;;;;5001168;28;20121;-42
2022/11/16 03:33:07;;;;;;;0.30;0.20;;;17.30;72.10;;;;;;4992231;28;20050;-42
2022/11/16 03:35:37;;;;;;;0.30;0.20;;;17.30;72.30;;;;;;4992323;28;20480;-42
2022/11/16 03:38:03;;;;;;;0.43;0.30;;;17.30;72.10;;;;;;4996026;28;20058;-42
2022/11/16 03:40:30;;;;;;;0.57;0.52;;;17.30;72.40;;;;;;5011016;28;20048;-42
2022/11/16 03:42:56;;;;;;;0.55;0.52;;;17.30;72.40;;;;;;5005107;28;20050;-42
2022/11/16 03:45:22;;;;;;;0.43;0.40;;;17.30;72.30;;;;;;4993919;28;20046;-41
2022/11/16 03:47:47;;;;;;;0.50;0.50;;;17.20;72.40;;;;;;5009273;28;20061;-41
2022/11/16 03:50:13;;;;;;;0.52;0.20;;;17.30;72.50;;;;;;5008363;28;20034;-42
2022/11/16 03:52:38;;;;;;;0.20;0.20;;;17.30;72.50;;;;;;5014273;28;20049;-44
2022/11/16 03:55:04;;;;;;;1.23;0.30;;;17.20;72.70;;;;;;5007304;28;20056;-41
2022/11/16 03:57:30;;;;;;;0.38;0.30;;;17.30;72.50;;;;;;4991214;28;20048;-41
2022/11/16 03:59:55;;;;;;;0.65;0.30;;;17.30;72.40;;;;;;5009741;28;20141;-42
2022/11/16 04:02:21;;;;;;;0.28;0.22;;;17.30;72.10;;;;;;5005350;28;20085;-41
2022/11/16 04:24:15;;;;;;;0.40;0.40;;;17.30;73.20;;;;;;5017494;28;20052;-42
2022/11/16 04:29:28;;;;;;;0.43;0.30;;;17.20;72.30;;;;;;4993899;28;20041;-41
2022/11/16 04:40:07;;;;;;;0.35;0.20;;;17.20;72.50;;;;;;5008274;28;20056;-42
2022/11/16 04:42:33;;;;;;;0.60;0.35;;;17.30;72.60;;;;;;5012858;28;20048;-46
2022/11/16 04:47:42;;;;;;;1.08;0.20;;;17.30;72.60;;;;;;5007880;28;20061;-42
2022/11/16 04:50:08;;;;;;;0.40;0.30;;;17.30;72.50;;;;;;5010848;28;20046;-42
2022/11/16 04:52:34;;;;;;;1.00;0.30;;;17.30;72.50;;;;;;5014692;28;20045;-42
2022/11/16 04:54:59;;;;;;;0.73;0.35;;;17.30;72.50;;;;;;5015530;28;20479;-42
2022/11/16 04:57:25;;;;;;;0.40;0.30;;;17.30;72.30;;;;;;5016387;28;20050;-42
2022/11/16 04:59:50;;;;;;;0.50;0.22;;;17.20;72.40;;;;;;5010588;28;22367;-41
2022/11/16 05:02:16;;;;;;;1.85;0.20;;;17.20;72.40;;;;;;4995711;28;20070;-42
2022/11/16 05:04:42;;;;;;;0.30;0.20;;;17.30;72.30;;;;;;4996539;28;20564;-45
2022/11/16 05:07:12;;;;;;;0.43;0.30;;;17.20;72.50;;;;;;5009292;28;20443;-41
2022/11/16 05:09:45;;;;;;;0.32;0.20;;;17.20;72.70;;;;;;4994335;28;20042;-45
2022/11/16 05:12:13;;;;;;;0.17;0.17;;;17.20;72.60;;;;;;4998325;28;20058;-42
2022/11/16 05:14:39;;;;;;;0.35;0.35;;;17.30;72.30;;;;;;5000798;28;20503;-41
2022/11/16 05:17:05;;;;;;;0.25;0.20;;;17.30;72.30;;;;;;5000393;28;20053;-41
2022/11/16 05:22:15;;;;;;;0.40;0.30;;;17.30;72.30;;;;;;5009255;28;20052;-41
2022/11/16 05:24:40;;;;;;;0.60;0.30;;;17.30;72.40;;;;;;5014946;28;20049;-33
2022/11/16 05:27:11;;;;;;;0.40;0.25;;;17.30;72.20;;;;;;5009342;28;20060;-42
2022/11/16 05:29:37;;;;;;;0.47;0.20;;;17.30;72.20;;;;;;5011859;28;20042;-42
2022/11/16 05:32:02;;;;;;;0.35;0.20;;;17.20;72.50;;;;;;5015723;28;20055;-41
2022/11/16 05:34:28;;;;;;;0.20;0.20;;;17.20;72.30;;;;;;5015303;28;20061;-41
2022/11/16 05:36:54;;;;;;;0.30;0.30;;;17.20;72.20;;;;;;4995636;28;20046;-41
2022/11/16 05:39:19;;;;;;;0.40;0.17;;;17.30;72.10;;;;;;4994862;28;20053;-41
2022/11/16 05:41:45;;;;;;;0.50;0.50;;;17.30;72.10;;;;;;4994707;28;20531;-42
2022/11/16 05:44:11;;;;;;;0.50;0.43;;;17.30;72.30;;;;;;5009646;28;20045;-42
2022/11/16 05:46:37;;;;;;;0.50;0.20;;;17.30;72.10;;;;;;5014176;28;20038;-42
2022/11/16 05:49:03;;;;;;;0.20;0.20;;;17.30;72.10;;;;;;5008185;28;20391;-41
2022/11/16 05:51:28;;;;;;;0.50;0.30;;;17.20;72.10;;;;;;5015842;28;20034;-42
2022/11/16 05:53:54;;;;;;;0.50;0.20;;;17.20;72.40;;;;;;5009410;28;20062;-42
2022/11/16 05:56:19;;;;;;;0.30;0.30;;;17.20;72.30;;;;;;5018162;28;20095;-42
2022/11/16 05:58:45;;;;;;;0.30;0.20;;;17.20;72.30;;;;;;5006507;28;20483;-42
2022/11/16 06:01:11;;;;;;;0.52;0.20;;;17.20;72.10;;;;;;5007458;28;20049;-42
2022/11/16 06:03:36;;;;;;;0.32;0.20;;;17.20;72.40;;;;;;5019014;28;20045;-42
2022/11/16 06:06:03;;;;;;;0.52;0.30;;;17.30;72.30;;;;;;5014228;28;22360;-42
2022/11/16 06:08:28;;;;;;;0.30;0.10;;;17.30;72.10;;;;;;5010087;28;20052;-43
2022/11/16 06:10:54;;;;;;;0.55;0.20;;;17.20;72.10;;;;;;5013755;28;20481;-43
2022/11/16 06:13:20;;;;;;;0.28;0.28;;;17.20;72.10;;;;;;5014662;28;20049;-43
2022/11/16 06:15:45;;;;;;;0.70;0.30;;;17.20;72.10;;;;;;5012276;28;20042;-42
2022/11/16 06:18:11;;;;;;;0.40;0.40;;;17.20;72.10;;;;;;5013594;28;20073;-43
2022/11/16 06:20:37;;;;;;;0.55;0.30;;;17.20;72.10;;;;;;5014673;28;20034;-42
2022/11/16 06:23:03;;;;;;;0.40;0.30;;;17.30;72.10;;;;;;5009954;28;20053;-43
2022/11/16 06:25:29;;;;;;;0.35;0.20;;;17.30;72.10;;;;;;5001343;28;20045;-45
2022/11/16 06:27:55;;;;;;;0.38;0.32;;;17.20;72.10;;;;;;5011443;28;20091;-42
2022/11/16 06:30:21;;;;;;;0.30;0.20;;;17.20;72.10;;;;;;4994426;28;20046;-42
2022/11/16 06:32:46;;;;;;;0.40;0.30;;;17.20;72.10;;;;;;4995189;28;20038;-42
2022/11/16 06:35:12;;;;;;;0.57;0.40;;;17.20;72.10;;;;;;5017469;28;20080;-42
2022/11/16 06:37:38;;;;;;;0.90;0.35;;;17.20;72.00;;;;;;5010808;28;20126;-42
2022/11/16 06:40:04;;;;;;;0.10;0.10;;;17.30;72.10;;;;;;5010984;28;20058;-48
2022/11/16 06:42:29;;;;;;;0.60;0.17;;;17.20;72.50;;;;;;4656781;28;10000945;-41
2022/11/16 06:44:55;;;;;;;0.57;0.20;;;17.20;73.20;;;;;;4638371;28;10000208;-22
2022/11/16 06:47:20;;;;;;;0.43;0.20;;;17.20;73.20;;;;;;4989231;28;20502;-20
2022/11/16 06:49:46;;;;;;;0.10;0.10;;;17.10;73.20;;;;;;4988731;28;20038;-22
2022/11/16 06:52:12;;;;;;;0.45;0.28;;;17.20;74.00;;;;;;4996245;28;20509;-21
2022/11/16 06:54:37;;;;;;;2.15;0.30;;;17.20;73.40;;;;;;5014370;28;20056;-21
2022/11/16 06:57:03;;;;;;;0.40;0.20;;;17.20;73.20;;;;;;5000901;28;20053;-22
2022/11/16 06:59:29;;;;;;;1.95;0.40;;;17.20;73.20;;;;;;5011732;28;20436;-21
2022/11/16 07:01:54;;;;;;;0.68;0.20;;;17.20;73.30;;;;;;4993338;28;20399;-21
2022/11/16 07:04:20;;;;;;;0.32;0.20;;;17.10;73.30;;;;;;5003328;28;20058;-22
2022/11/16 07:06:46;;;;;;;0.43;0.32;;;17.10;73.30;;;;;;5005570;28;20038;-21
2022/11/16 07:09:12;;;;;;;0.93;0.20;;;17.00;73.30;;;;;;5010384;28;20136;-22
2022/11/16 07:11:38;;;;;;;0.35;0.35;;;17.00;73.60;;;;;;5009355;28;20050;-22
2022/11/16 07:14:04;;;;;;;0.40;0.20;;;17.10;73.50;;;;;;4655589;28;10000013;-21
2022/11/16 07:16:29;;;;;;;0.95;0.38;;;17.10;73.20;;;;;;5007338;28;20046;-21
2022/11/16 07:18:57;;;;;;;0.40;0.30;;;17.20;73.10;;;;;;4993032;28;20125;-21
2022/11/16 07:21:23;;;;;;;0.30;0.20;;;17.20;73.00;;;;;;4998097;28;20050;-23
2022/11/16 07:23:49;;;;;;;0.50;0.40;;;17.20;72.90;;;;;;4993356;28;20053;-21
2022/11/16 07:26:14;;;;;;;0.30;0.30;;;17.20;72.90;;;;;;4993123;28;20042;-23
2022/11/16 07:28:40;;;;;;;0.80;0.20;;;17.20;72.90;;;;;;4991085;28;20042;-21
2022/11/16 07:31:07;;;;;;;0.20;0.20;;;17.20;73.60;;;;;;5000051;28;20635;-22
2022/11/16 07:33:33;;;;;;;3.83;0.20;;;17.20;72.80;;;;;;4995026;28;20053;-21
2022/11/16 07:36:05;;;;;;;0.43;0.20;;;17.30;72.80;;;;;;4990827;28;20049;-21
2022/11/16 07:38:31;;;;;;;1.48;0.77;;;17.20;72.60;;;;;;4984256;28;20054;-25
2022/11/16 07:41:07;;;;;;;0.30;0.20;;;17.30;72.40;;;;;;4990521;28;20046;-21
2022/11/16 07:43:35;;;;;;;0.30;0.20;;;17.20;72.80;;;;;;4987802;28;20597;-22
2022/11/16 07:46:02;;;;;;;0.73;0.30;;;17.30;72.80;;;;;;4990439;28;20542;-22
2022/11/16 07:48:28;;;;;;;0.40;0.28;;;17.20;72.90;;;;;;4998659;28;20099;-21
2022/11/16 07:51:01;;;;;;;0.88;0.28;;;17.20;72.80;;;;;;5006771;28;20445;-21
2022/11/16 07:53:27;;;;;;;0.30;0.30;;;17.20;73.10;;;;;;5009464;28;20141;-22
2022/11/16 07:55:53;;;;;;;0.73;0.20;;;17.20;72.80;;;;;;4996118;28;20130;-22
2022/11/16 07:58:19;;;;;;;0.63;0.38;;;17.30;72.50;;;;;;4993391;28;20042;-21
2022/11/16 08:00:45;;;;;;;1.08;0.50;;;17.30;72.70;;;;;;4992716;28;20554;-24
2022/11/16 08:03:11;;;;;;;3.60;0.30;;;17.40;72.80;;;;;;4612034;28;9999759;-22
2022/11/16 08:05:36;;;;;;;0.20;0.10;;;17.50;72.80;;;;;;4984825;28;20043;-23
2022/11/16 08:08:02;;;;;;;1.02;0.20;;;17.40;73.40;;;;;;4992612;28;20126;-23
2022/11/16 08:10:29;;;;;;;0.50;0.30;;;17.30;73.80;;;;;;4996575;28;20152;-22
2022/11/16 08:12:55;;;;;;;0.20;0.10;;;17.30;74.20;;;;;;4992153;28;20026;-21
2022/11/16 08:15:21;;;;;;;0.50;0.30;;;17.20;74.00;;;;;;4987466;28;20053;-22
2022/11/16 08:17:46;;;;;;;1.52;0.40;;;17.30;73.90;;;;;;5006849;28;20038;-22
2022/11/16 08:20:12;;;;;;;0.40;0.30;;;17.40;73.50;;;;;;5012016;28;20103;-22
2022/11/16 08:22:38;;;;;;;0.43;0.28;;;17.40;73.20;;;;;;5007424;28;20422;-23
2022/11/16 08:25:04;;;;;;;0.40;0.30;;;17.40;73.40;;;;;;4986075;28;20062;-31
2022/11/16 08:27:31;;;;;;;0.47;0.20;;;17.30;73.50;;;;;;4991978;28;20137;-32
2022/11/16 08:29:56;;;;;;;0.80;0.25;;;17.30;73.60;;;;;;4989439;28;21201;-23
2022/11/16 08:32:22;;;;;;;1.70;0.25;;;17.40;73.40;;;;;;5001885;28;20038;-22
2022/11/16 08:34:48;;;;;;;0.55;0.40;;;17.30;73.50;;;;;;5008374;28;20042;-26
2022/11/16 08:37:13;;;;;;;1.88;0.40;;;17.20;73.90;;;;;;4998863;28;20565;-22
2022/11/16 08:39:39;;;;;;;0.30;0.10;;;17.30;73.80;;;;;;4966848;28;1151466;-28
2022/11/16 08:42:04;;;;;;;0.22;0.20;;;17.50;72.90;;;;;;5010219;28;20054;-28
2022/11/16 08:44:30;;;;;;;0.32;0.22;;;17.50;73.10;;;;;;5016743;28;20046;-21
2022/11/16 08:46:55;;;;;;;1.00;0.30;;;17.40;73.10;;;;;;5010849;28;20410;-21
2022/11/16 08:49:21;;;;;;;0.80;0.47;;;17.30;73.80;;;;;;4997948;28;20081;-20
2022/11/16 08:51:47;;;;;;;1.75;0.30;;;17.30;74.40;;;;;;4991007;28;20114;-21
2022/11/16 08:54:12;;;;;;;0.55;0.35;;;17.20;73.80;;;;;;5009830;28;20089;-23
2022/11/16 08:56:38;;;;;;;0.80;0.40;;;17.20;73.90;;;;;;4997029;28;20173;-21
2022/11/16 08:59:03;;;;;;;1.63;0.30;;;17.20;73.90;;;;;;5009286;28;20034;-21
2022/11/16 09:01:30;;;;;;;0.47;0.40;;;17.20;73.70;;;;;;5004191;28;20708;-22
2022/11/16 09:03:56;;;;;;;2.78;0.30;;;17.20;73.70;;;;;;4995442;28;20056;-20
2022/11/16 09:06:22;;;;;;;1.10;0.20;;;17.20;73.70;;;;;;5009990;28;20725;-21
2022/11/16 09:08:47;;;;;;;1.55;0.10;;;17.20;73.70;;;;;;5011168;28;20033;-22
2022/11/16 09:11:15;;;;;;;1.35;0.10;;;17.20;73.70;;;;;;5004571;28;20153;-25
2022/11/16 09:13:41;;;;;;;1.85;0.43;;;17.20;73.60;;;;;;5014829;28;20501;-22
2022/11/16 09:16:07;;;;;;;0.43;0.20;;;17.20;74.40;;;;;;4993921;28;20069;-22
2022/11/16 09:18:33;;;;;;;0.70;0.35;;;17.20;73.60;;;;;;4991556;28;20130;-21
2022/11/16 09:20:58;;;;;;;1.10;0.45;;;17.20;73.60;;;;;;5007010;28;20041;-30
2022/11/16 09:23:24;;;;;;;0.35;0.35;;;17.20;73.60;;;;;;5003451;28;20053;-22
2022/11/16 09:25:49;;;;;;;0.55;0.20;;;17.20;73.60;;;;;;5011530;28;20042;-21
2022/11/16 09:28:16;;;;;;;0.50;0.28;;;17.20;73.50;;;;;;5005350;28;20061;-22
2022/11/16 09:30:42;;;;;;;0.75;0.35;;;17.20;73.40;;;;;;4996753;28;20041;-22
2022/11/16 09:33:08;;;;;;;0.98;0.22;;;17.30;73.10;;;;;;4991088;28;20099;-21
2022/11/16 09:35:33;;;;;;;0.32;0.20;;;17.20;73.20;;;;;;4990929;28;20535;-23
2022/11/16 09:37:59;;;;;;;0.82;0.20;;;17.20;73.20;;;;;;4990222;28;20065;-28
2022/11/16 09:40:34;;;;;;;0.68;0.20;;;17.20;73.10;;;;;;4993374;28;20091;-21
2022/11/16 09:43:08;;;;;;;0.82;0.32;;;17.30;72.80;;;;;;5005788;28;20510;-22
2022/11/16 09:45:43;;;;;;;;;;;17.30;72.80;;;;;;5012247;28;20044;-21
2022/11/16 09:48:11;;;;;;;0.38;0.20;;;17.30;72.80;;;;;;5006885;28;19922;-21
2022/11/16 09:51:01;;;;;;;0.82;0.20;;;17.30;72.80;;;;;;5012831;28;20045;-22
2022/11/16 09:53:42;;;;;;;0.47;0.20;;;17.20;72.80;;;;;;5009139;28;20061;-21
2022/11/16 09:56:19;;;;;;;0.75;0.30;;;17.20;73.20;;;;;;4994571;28;20043;-27
2022/11/16 09:59:06;;;;;;;0.28;0.20;;;17.20;73.10;;;;;;4991822;28;20038;-21
2022/11/16 10:01:41;;;;;;;1.17;0.68;;;17.10;73.20;;;;;;5007890;28;20052;-21
2022/11/16 10:04:19;;;;;;;0.25;0.22;;;17.10;73.30;;;;;;5018815;28;20043;-22
2022/11/16 10:07:11;;;;;;;0.50;0.30;;;17.10;73.30;;;;;;5014274;28;20038;-30
2022/11/16 10:09:37;;;;;;;0.70;0.40;;;17.10;73.30;;;;;;5003896;28;20045;-23
2022/11/16 10:12:10;;;;;;;0.68;0.22;;;17.10;73.70;;;;;;5011604;28;20100;-22
2022/11/16 10:14:41;;;;;;;0.68;0.20;;;17.10;73.30;;;;;;5026055;28;20088;-22
2022/11/16 10:17:25;;;;;;;1.27;0.50;;;17.10;73.20;;;;;;5009556;28;20042;-21
2022/11/16 10:20:07;;;;;;;0.55;0.28;;;17.10;73.40;;;;;;5013797;28;20045;-21
2022/11/16 10:23:03;;;;;;;0.80;0.40;;;17.10;73.40;;;;;;5011261;28;20030;-28
2022/11/16 10:25:41;;;;;;;0.60;0.30;;;17.10;73.30;;;;;;5005237;28;20040;-21
2022/11/16 10:28:28;;;;;;;0.35;0.25;;;17.00;73.40;;;;;;5013913;28;20117;-21
2022/11/16 10:31:17;;;;;;;0.35;0.20;;;17.00;73.50;;;;;;5005524;28;20081;-23
2022/11/16 10:33:43;;;;;;;0.55;0.35;;;17.10;73.20;;;;;;4987444;28;20038;-22
2022/11/16 10:36:12;;;;;;;0.30;0.28;;;17.10;73.10;;;;;;4994610;28;20034;-22
2022/11/16 10:38:37;;;;;;;1.05;0.32;;;17.10;73.20;;;;;;4988964;28;20499;-21
2022/11/16 10:41:25;;;;;;;0.75;0.32;;;17.00;74.00;;;;;;4994618;28;20633;-20
2022/11/16 10:43:50;;;;;;;0.55;0.32;;;17.10;73.10;;;;;;5000833;28;20022;-22
2022/11/16 10:46:29;;;;;;;1.05;0.30;;;17.10;73.00;;;;;;5012720;28;20680;-23
2022/11/16 10:49:16;;;;;;;0.50;0.30;;;17.10;73.00;;;;;;4996831;28;20049;-21
2022/11/16 10:51:42;;;;;;;0.77;0.40;;;17.00;73.10;;;;;;5023461;28;20042;-21
2022/11/16 10:54:12;;;;;;;1.17;0.30;;;17.10;72.70;;;;;;5008911;28;20128;-21
2022/11/16 10:56:40;;;;;;;0.47;0.40;;;17.00;73.20;;;;;;4991681;28;20038;-22
2022/11/16 10:59:06;;;;;;;0.30;0.20;;;17.00;73.10;;;;;;4995561;28;20045;-22
2022/11/16 11:01:39;;;;;;;0.55;0.30;;;17.10;73.10;;;;;;5005479;28;20053;-21
2022/11/16 11:04:26;;;;;;;0.40;0.25;;;17.30;73.20;;;;;;5012027;28;20042;-21
2022/11/16 11:07:01;;;;;;;0.98;0.30;;;17.20;72.30;;;;;;5008669;28;20050;-21
2022/11/16 11:09:27;;;;;;;0.45;0.40;;;17.20;73.40;;;;;;5006126;28;20564;-26
2022/11/16 11:15:04;;;;;;;0.30;0.22;;;17.20;72.10;;;;;;5012306;28;20048;-21
2022/11/16 11:17:31;;;;;;;0.50;0.30;;;17.20;72.50;;;;;;5009294;28;20052;-21
2022/11/16 11:20:04;;;;;;;0.52;0.38;;;17.20;72.70;;;;;;5007044;28;20414;-22
2022/11/16 11:22:31;;;;;;;0.90;0.40;;;17.10;72.80;;;;;;5016925;28;20052;-27
2022/11/16 11:24:57;;;;;;;0.60;0.32;;;17.10;72.80;;;;;;5000905;28;20049;-21
2022/11/16 11:27:24;;;;;;;0.82;0.30;;;17.00;72.80;;;;;;4996550;28;20046;-26
2022/11/16 11:29:52;;;;;;;0.50;0.30;;;17.00;73.00;;;;;;4991760;28;20041;-21
2022/11/16 11:32:17;;;;;;;0.40;0.40;;;17.10;73.80;;;;;;4991076;28;20343;-23
2022/11/16 11:34:46;;;;;;;0.55;0.28;;;17.10;72.70;;;;;;4980176;28;20535;-22
2022/11/16 11:37:16;;;;;;;1.10;0.40;;;17.10;72.70;;;;;;4974750;28;20061;-23
2022/11/16 11:39:41;;;;;;;0.73;0.43;;;17.10;72.80;;;;;;4972080;28;20541;-24
2022/11/16 11:42:13;;;;;;;0.40;0.40;;;17.20;72.60;;;;;;4972126;28;20050;-22
2022/11/16 11:45:01;;;;;;;0.25;0.22;;;17.20;72.40;;;;;;4970511;28;20149;-24
2022/11/16 11:47:47;;;;;;;1.30;0.40;;;17.20;72.40;;;;;;4972325;28;20065;-23
2022/11/16 11:50:18;;;;;;;0.75;0.40;;;17.30;72.10;;;;;;4972701;28;20389;-23
2022/11/16 11:53:06;;;;;;;2.15;0.30;;;17.30;71.80;;;;;;4974288;28;20050;-23
2022/11/16 11:55:32;;;;;;;0.47;0.25;;;17.30;71.80;;;;;;4975112;28;20080;-24
2022/11/16 11:57:58;;;;;;;0.70;0.40;;;17.30;71.70;;;;;;4972132;28;21425;-23
2022/11/16 12:00:24;;;;;;;1.58;0.35;;;17.40;71.70;;;;;;4969958;28;20086;-23
2022/11/16 12:03:17;;;;;;;0.85;0.52;;;17.40;71.60;;;;;;4974163;28;20061;-23
2022/11/16 12:06:02;;;;;;;0.80;0.50;;;17.40;71.40;;;;;;4970783;28;20104;-23
2022/11/16 12:08:54;;;;;;;1.38;0.55;;;17.40;71.50;;;;;;4972215;28;20181;-23
2022/11/16 12:11:47;;;;;;;0.63;0.40;;;17.40;71.10;;;;;;4970394;28;20132;-22
2022/11/16 12:14:33;;;;;;;0.70;0.43;;;17.40;71.90;;;;;;4970372;28;20557;-31
2022/11/16 12:17:06;;;;;;;0.55;0.30;;;17.40;71.20;;;;;;4972651;28;20065;-24
2022/11/16 12:19:47;;;;;;;0.40;0.30;;;17.50;71.00;;;;;;4988872;28;20057;-23
2022/11/16 12:22:42;;;;;;;0.60;0.30;;;17.50;71.20;;;;;;4990344;28;20066;-22
2022/11/16 12:25:21;;;;;;;1.73;0.40;;;17.50;71.10;;;;;;4987563;28;20090;-23
2022/11/16 12:28:06;;;;;;;0.98;0.40;;;17.40;71.30;;;;;;4989894;28;20518;-23
2022/11/16 12:30:32;;;;;;;0.75;0.40;;;17.40;71.40;;;;;;4990004;28;20053;-24
2022/11/16 12:33:04;;;;;;;0.30;0.30;;;17.40;71.50;;;;;;4995645;28;20054;-24
2022/11/16 12:35:32;;;;;;;0.68;0.40;;;17.50;72.70;;;;;;5005753;28;20116;-24
2022/11/16 12:38:25;;;;;;;2.58;0.50;;;17.40;71.70;;;;;;5008623;28;20045;-23
2022/11/16 12:41:09;;;;;;;0.30;0.30;;;17.60;71.50;;;;;;5005242;28;20096;-24
2022/11/16 12:43:51;;;;;;;0.40;0.32;;;17.60;71.50;;;;;;5012610;28;20037;-43
2022/11/16 12:46:23;;;;;;;0.85;0.38;;;17.50;71.80;;;;;;5012595;28;20052;-45
2022/11/16 12:49:03;;;;;;;1.00;0.47;;;17.50;71.60;;;;;;5008352;28;20088;-45
2022/11/16 12:51:44;;;;;;;1.17;0.50;;;17.50;72.00;;;;;;5009802;28;20503;-44
2022/11/16 12:54:40;;;;;;;0.85;0.50;;;17.40;72.60;;;;;;5008891;28;20121;-46
2022/11/16 12:57:08;;;;;;;0.70;0.50;;;17.40;72.90;;;;;;4988539;28;20046;-43
2022/11/16 12:59:44;;;;;;;1.27;0.80;;;17.40;73.10;;;;;;5012981;28;20060;-43
2022/11/16 13:02:29;;;;;;;2.13;1.45;;;17.50;72.80;;;;;;5029088;28;20566;-43
2022/11/16 13:05:02;;;;;;;;;;;17.50;74.40;;;;;;4987305;28;20578;-43
2022/11/16 13:07:36;;;;;;;0.82;0.70;;;17.50;73.20;;;;;;4991209;28;20399;-42
2022/11/16 13:10:12;;;;;;;1.17;1.00;;;17.40;73.30;;;;;;4994895;28;20035;-42
2022/11/16 13:12:38;;;;;;;2.08;1.40;;;17.40;74.10;;;;;;5005376;28;20045;-43
2022/11/16 13:15:04;;;;;;;3.15;1.27;;;17.40;74.10;;;;;;5014529;28;20041;-41
2022/11/16 13:17:32;;;;;;;1.40;0.98;;;17.40;75.00;;;;;;5023410;28;20487;-43
2022/11/16 13:20:35;;;;;;;4.43;1.40;;;17.50;74.40;;;;;;5012724;28;20085;-42
2022/11/16 13:23:30;;;;;;;2.58;1.33;;;17.50;75.00;;;;;;4995525;28;20049;-42
2022/11/16 13:26:02;;;;;;;2.25;1.20;;;17.40;74.90;;;;;;5014482;28;20072;-42
2022/11/16 13:29:12;;;;;;;1.05;0.85;;;17.40;75.50;;;;;;5008821;28;20096;-44
2022/11/16 13:31:47;;;;;;;2.92;0.98;;;17.40;75.10;;;;;;5009616;28;20048;-42
2022/11/16 13:34:30;;;;;;;1.95;1.27;;;17.40;74.70;;;;;;4997478;28;20065;-42
2022/11/16 13:36:55;;;;;;;1.60;1.08;;;17.50;75.00;;;;;;5012336;28;20049;-43
2022/11/16 13:40:02;;;;;;;1.55;1.15;;;17.40;74.90;;;;;;5012238;28;20053;-43
2022/11/16 13:42:29;;;;;;;1.95;0.98;;;17.40;75.30;;;;;;5001059;28;20101;-42
2022/11/16 13:45:03;;;;;;;1.10;1.00;;;17.40;75.20;;;;;;5015515;28;20462;-42